Mc Adenville, North Carolina
Current Conditions -  °F | °C
As of 3:54 PM on Tuesday 27 Jan 2015 (Local Time) from KAKH Reporting Station
Clear Clear  
Wind Chill: 46°   Ceiling: Unl
Heat Index: 48°   Visibility: 10mi
Dew Point: 18°   Wind: 5mph
Humidity: 30%   Direction: NA
Pressure: 29.85"   Gusts: NA
Location:  35.2538°N, 81.0729°W
Report Text: KAKH 272054Z AUTO VRB04KT 10SM CLR 09/M08 A2985 RMK AO2 SLP113 T00891078 53005
Loading
Personal Weather Stations






























Interactive Weather Map New forecast layout! Learn more

10-Day Weather Forecast

Advertisements
Track Severe Weather on mobile